createdAt,value
2022-10-05T00:01:27.395Z,98654.81
2022-10-05T00:03:59.127Z,98652.22
2022-10-05T00:06:28.429Z,98653.88
2022-10-05T00:08:54.997Z,98641.03
2022-10-05T00:11:21.593Z,98650.53
2022-10-05T00:13:48.244Z,98647.13
2022-10-05T00:16:19.642Z,98642.06
2022-10-05T00:18:48.371Z,98639.47
2022-10-05T00:21:26.287Z,98639.47
2022-10-05T00:23:54.126Z,98640.28
2022-10-05T00:26:22.216Z,98638.53
2022-10-05T00:28:48.868Z,98636.84
2022-10-05T00:31:17.414Z,98637.69
2022-10-05T00:33:44.045Z,98640.25
2022-10-05T00:36:10.968Z,98644.53
2022-10-05T00:38:37.616Z,98640.25
2022-10-05T00:41:07.420Z,98634.34
2022-10-05T00:43:40.226Z,98643.84
2022-10-05T00:46:11.043Z,98640.41
2022-10-05T00:48:52.918Z,98643.88
2022-10-05T00:51:22.221Z,98640.44
2022-10-05T00:54:01.145Z,98649.91
2022-10-05T00:56:46.719Z,98649.06
2022-10-05T00:59:16.454Z,98649.91
2022-10-05T01:01:51.028Z,98649.06
2022-10-05T01:04:20.672Z,98652.50
2022-10-05T01:06:47.522Z,98649.94
2022-10-05T01:09:26.609Z,98648.22
2022-10-05T01:11:59.185Z,98647.34
2022-10-05T01:14:28.930Z,98647.31
2022-10-05T01:17:10.938Z,98650.78
2022-10-05T01:19:37.550Z,98659.41
2022-10-05T01:22:13.003Z,98656.00
2022-10-05T01:24:43.567Z,98653.50
2022-10-05T01:27:30.652Z,98656.09
2022-10-05T01:30:02.826Z,98658.66
2022-10-05T01:32:33.216Z,98658.63
2022-10-05T01:34:59.765Z,98656.91
2022-10-05T01:37:29.367Z,98652.66
2022-10-05T01:40:11.189Z,98651.81
2022-10-05T01:42:46.408Z,98657.00
2022-10-05T01:45:24.876Z,98654.41
2022-10-05T01:47:57.293Z,98652.72
2022-10-05T01:50:42.506Z,98648.41
2022-10-05T01:53:20.912Z,98650.16
2022-10-05T01:55:47.463Z,98657.00
2022-10-05T01:58:27.113Z,98654.47
2022-10-05T02:00:53.687Z,98657.91
2022-10-05T02:03:37.067Z,98660.53
2022-10-05T02:06:15.676Z,98658.84
2022-10-05T02:09:00.965Z,98665.69
2022-10-05T02:11:27.704Z,98662.31
2022-10-05T02:14:08.607Z,98660.59
2022-10-05T02:16:38.851Z,98664.00
2022-10-05T02:19:25.683Z,98655.44
2022-10-05T02:21:59.106Z,98667.50
2022-10-05T02:24:29.035Z,98667.50
2022-10-05T02:26:56.625Z,98664.09
2022-10-05T02:29:26.376Z,98664.91
2022-10-05T02:31:57.350Z,98661.50
2022-10-05T02:34:27.040Z,98665.75
2022-10-05T02:37:01.815Z,98669.22
2022-10-05T02:39:33.095Z,98669.22
2022-10-05T02:42:18.386Z,98665.81
2022-10-05T02:45:05.665Z,98662.34
2022-10-05T02:47:44.254Z,98667.53
2022-10-05T02:50:16.872Z,98669.28
2022-10-05T02:52:49.439Z,98669.22
2022-10-05T02:55:19.352Z,98671.78
2022-10-05T02:57:45.970Z,98670.91
2022-10-05T03:00:17.741Z,98673.47
2022-10-05T03:03:03.090Z,98663.97
2022-10-05T03:05:32.502Z,98669.16
2022-10-05T03:08:05.919Z,98673.47
2022-10-05T03:10:57.871Z,98680.38
2022-10-05T03:13:30.620Z,98674.38
2022-10-05T03:15:57.271Z,98676.13
2022-10-05T03:18:26.339Z,98683.00
2022-10-05T03:21:12.116Z,98674.44
2022-10-05T03:23:38.706Z,98681.31
2022-10-05T03:26:13.686Z,98681.31
2022-10-05T03:28:47.063Z,98674.44
2022-10-05T03:31:13.659Z,98693.31
2022-10-05T03:34:12.801Z,98686.44
2022-10-05T03:36:49.545Z,98693.34
2022-10-05T03:39:19.237Z,98691.66
2022-10-05T03:42:02.210Z,98691.63
2022-10-05T03:44:36.681Z,98695.88
2022-10-05T03:47:41.565Z,98696.72
2022-10-05T03:50:24.259Z,98698.47
2022-10-05T03:52:59.979Z,98698.44
2022-10-05T03:55:35.555Z,98699.25
2022-10-05T03:58:15.952Z,98697.56
2022-10-05T04:00:45.213Z,98693.31
2022-10-05T04:03:27.230Z,98698.50
2022-10-05T04:05:55.639Z,98695.09
2022-10-05T04:08:44.113Z,98689.94
2022-10-05T04:11:20.545Z,98695.09
2022-10-05T04:13:55.357Z,98701.13
2022-10-05T04:16:31.488Z,98700.25
2022-10-05T04:19:03.012Z,98700.19
2022-10-05T04:21:35.216Z,98701.81
2022-10-05T04:24:09.427Z,98704.41
2022-10-05T04:26:38.844Z,98707.03
2022-10-05T04:29:12.890Z,98700.16
2022-10-05T04:31:48.672Z,98702.72
2022-10-05T04:34:35.645Z,98713.88
2022-10-05T04:37:05.268Z,98705.28
2022-10-05T04:39:43.799Z,98709.56
2022-10-05T04:42:16.677Z,98711.22
2022-10-05T04:44:46.032Z,98710.38
2022-10-05T04:47:22.616Z,98712.09
2022-10-05T04:50:07.840Z,98710.41
2022-10-05T04:52:46.889Z,98708.72
2022-10-05T04:55:16.445Z,98718.13
2022-10-05T04:57:43.068Z,98717.28
2022-10-05T05:00:17.196Z,98720.75
2022-10-05T05:02:49.991Z,98722.50
2022-10-05T05:05:27.557Z,98720.78
2022-10-05T05:08:03.834Z,98725.94
2022-10-05T05:10:30.358Z,98719.88
2022-10-05T05:13:15.704Z,98718.13
2022-10-05T05:16:17.767Z,98718.13
2022-10-05T05:18:44.414Z,98718.13
2022-10-05T05:21:27.141Z,98715.56
2022-10-05T05:23:53.779Z,98723.31
2022-10-05T05:26:39.151Z,98723.31
2022-10-05T05:29:05.899Z,98715.59
2022-10-05T05:31:47.335Z,98715.56
2022-10-05T05:34:29.499Z,98712.09
2022-10-05T05:37:14.574Z,98714.66
2022-10-05T05:39:59.753Z,98712.84
2022-10-05T05:42:34.309Z,98711.94
2022-10-05T05:45:06.773Z,98723.94
2022-10-05T05:47:37.975Z,98724.81
2022-10-05T05:50:20.069Z,98729.16
2022-10-05T05:52:49.529Z,98730.88
2022-10-05T05:55:20.326Z,98732.63
2022-10-05T05:57:50.130Z,98741.25
2022-10-05T06:00:17.700Z,98743.84
2022-10-05T06:02:44.298Z,98730.94
2022-10-05T06:05:26.256Z,98739.53
2022-10-05T06:07:53.935Z,98746.38
2022-10-05T06:10:34.967Z,98737.72
2022-10-05T06:13:05.564Z,98745.44
2022-10-05T06:15:38.741Z,98744.63
2022-10-05T06:18:10.560Z,98751.53
2022-10-05T06:20:40.623Z,98750.69
2022-10-05T06:23:16.989Z,98753.25
2022-10-05T06:25:57.214Z,98759.31
2022-10-05T06:28:25.348Z,98761.91
2022-10-05T06:30:57.749Z,98765.31
2022-10-05T06:33:27.147Z,98771.28
2022-10-05T06:35:56.522Z,98773.81
2022-10-05T06:38:46.500Z,98772.97
2022-10-05T06:41:31.680Z,98772.91
2022-10-05T06:44:00.567Z,98771.94
2022-10-05T06:46:32.328Z,98773.63
2022-10-05T06:49:25.123Z,98771.03
2022-10-05T06:51:55.393Z,98778.72
2022-10-05T06:54:31.212Z,98780.44
2022-10-05T06:57:12.985Z,98777.81
2022-10-05T06:59:45.809Z,98785.47
2022-10-05T07:02:18.483Z,98791.44
2022-10-05T07:04:45.077Z,98797.44
2022-10-05T07:07:29.860Z,98795.75
2022-10-05T07:10:02.441Z,98798.38
2022-10-05T07:12:32.889Z,98804.44
2022-10-05T07:15:03.182Z,98802.69
2022-10-05T07:17:42.506Z,98799.19
2022-10-05T07:20:09.108Z,98804.25
2022-10-05T07:22:43.033Z,98809.34
2022-10-05T07:25:15.786Z,98805.00
2022-10-05T07:28:05.371Z,98809.25
2022-10-05T07:30:38.245Z,98811.03
2022-10-05T07:33:20.885Z,98808.50
2022-10-05T07:36:17.561Z,98813.66
2022-10-05T07:38:59.430Z,98818.78
2022-10-05T07:41:47.724Z,98823.09
2022-10-05T07:44:22.795Z,98824.91
2022-10-05T07:46:54.793Z,98827.50
2022-10-05T07:49:40.013Z,98831.84
2022-10-05T07:52:11.397Z,98835.25
2022-10-05T07:54:38.067Z,98845.63
2022-10-05T07:57:16.959Z,98848.25
2022-10-05T07:59:56.489Z,98849.97
2022-10-05T08:02:33.533Z,98848.16
2022-10-05T08:05:12.751Z,98856.75
2022-10-05T08:07:39.627Z,98847.25
2022-10-05T08:10:06.224Z,98847.25
2022-10-05T08:12:38.961Z,98850.66
2022-10-05T08:15:25.848Z,98856.66
2022-10-05T08:18:00.085Z,98860.13
2022-10-05T08:20:35.912Z,98862.63
2022-10-05T08:23:08.987Z,98862.59
2022-10-05T08:25:41.877Z,98858.31
2022-10-05T08:28:14.494Z,98861.75
2022-10-05T08:30:59.506Z,98865.16
2022-10-05T08:33:27.901Z,98866.88
2022-10-05T08:36:10.783Z,98869.41
2022-10-05T08:38:37.701Z,98869.41
2022-10-05T08:41:35.565Z,98874.53
2022-10-05T08:44:31.369Z,98872.06
2022-10-05T08:47:00.874Z,98871.28
2022-10-05T08:49:28.990Z,98881.66
2022-10-05T08:52:23.369Z,98879.94
2022-10-05T08:55:02.027Z,98871.38
2022-10-05T08:57:49.022Z,98873.94
2022-10-05T09:00:22.524Z,98878.22
2022-10-05T09:02:49.248Z,98881.56
2022-10-05T09:05:18.741Z,98880.56
2022-10-05T09:07:51.274Z,98872.69
2022-10-05T09:10:17.854Z,98881.06
2022-10-05T09:12:47.661Z,98881.72
2022-10-05T09:15:27.818Z,98890.38
2022-10-05T09:18:07.291Z,98888.75
2022-10-05T09:20:37.018Z,98896.72
2022-10-05T09:23:16.576Z,98897.59
2022-10-05T09:26:01.817Z,98903.63
2022-10-05T09:28:32.990Z,98916.63
2022-10-05T09:31:05.844Z,98914.13
2022-10-05T09:33:38.645Z,98918.47
2022-10-05T09:36:05.249Z,98910.78
2022-10-05T09:38:50.393Z,98906.47
2022-10-05T09:41:32.142Z,98917.66
2022-10-05T09:44:11.348Z,98923.66
2022-10-05T09:46:56.424Z,98911.53
2022-10-05T09:49:23.016Z,98917.44
2022-10-05T09:51:55.829Z,98912.22
2022-10-05T09:54:43.708Z,98912.28
2022-10-05T09:57:13.041Z,98921.72
2022-10-05T10:00:09.526Z,98926.06
2022-10-05T10:02:56.884Z,98932.03
2022-10-05T10:05:42.536Z,98950.13
2022-10-05T10:08:15.106Z,98939.88
2022-10-05T10:11:00.175Z,98940.78
2022-10-05T10:13:45.735Z,98935.63
2022-10-05T10:16:35.727Z,98944.19
2022-10-05T10:19:02.282Z,98947.59
2022-10-05T10:21:29.528Z,98948.47
2022-10-05T10:24:14.889Z,98951.88
2022-10-05T10:27:00.195Z,98960.63
2022-10-05T10:29:37.683Z,98971.88
2022-10-05T10:32:04.314Z,98963.34
2022-10-05T10:34:30.863Z,98971.09
2022-10-05T10:37:23.707Z,98964.25
2022-10-05T10:39:59.518Z,98964.19
2022-10-05T10:42:39.899Z,98970.97
2022-10-05T10:45:26.260Z,98961.88
2022-10-05T10:47:53.227Z,98958.59
2022-10-05T10:50:29.305Z,98960.13
2022-10-05T10:53:20.581Z,98972.28
2022-10-05T10:55:56.609Z,98963.50
2022-10-05T10:58:42.215Z,98947.59
2022-10-05T11:01:25.118Z,98958.34
2022-10-05T11:03:54.526Z,98952.72
2022-10-05T11:06:26.342Z,98947.19
2022-10-05T11:09:19.100Z,98940.56
2022-10-05T11:12:04.292Z,98926.44
2022-10-05T11:14:42.422Z,98896.06
2022-10-05T11:17:18.460Z,98909.47
2022-10-05T11:20:05.186Z,99000.38
2022-10-05T11:22:41.297Z,99004.31
2022-10-05T11:25:35.410Z,99009.25
2022-10-05T11:28:13.445Z,99010.19
2022-10-05T11:30:46.131Z,99009.59
2022-10-05T11:33:26.393Z,99021.97
2022-10-05T11:35:55.885Z,99033.53
2022-10-05T11:38:28.477Z,99035.41
2022-10-05T11:40:58.133Z,99039.84
2022-10-05T11:43:25.101Z,99029.56
2022-10-05T11:45:51.716Z,99039.16
2022-10-05T11:48:21.365Z,99042.69
2022-10-05T11:51:03.187Z,99051.44
2022-10-05T11:53:35.995Z,99039.47
2022-10-05T11:56:02.691Z,99036.94
2022-10-05T11:58:32.589Z,99049.84
2022-10-05T12:01:05.693Z,99042.06
2022-10-05T12:03:41.383Z,99076.66
2022-10-05T12:06:15.826Z,99087.97
2022-10-05T12:09:00.678Z,99072.53
2022-10-05T12:11:42.804Z,99075.16
2022-10-05T12:14:12.448Z,99071.72
2022-10-05T12:16:49.823Z,99073.44
2022-10-05T12:19:42.865Z,99063.09
2022-10-05T12:22:10.723Z,99066.63
2022-10-05T12:24:37.307Z,99062.31
2022-10-05T12:27:06.782Z,99073.53
2022-10-05T12:29:33.464Z,99075.25
2022-10-05T12:32:18.743Z,99072.63
2022-10-05T12:34:48.798Z,99076.53
2022-10-05T12:37:33.867Z,99069.06
2022-10-05T12:40:00.406Z,99071.06
2022-10-05T12:42:46.073Z,99080.63
2022-10-05T12:45:30.923Z,99072.31
2022-10-05T12:48:08.405Z,99080.41
2022-10-05T12:50:36.846Z,99090.97
2022-10-05T12:53:15.361Z,99086.66
2022-10-05T12:56:00.670Z,99089.22
2022-10-05T12:58:27.297Z,99097.72
2022-10-05T13:00:57.429Z,99077.97
2022-10-05T13:03:24.029Z,99088.38
2022-10-05T13:06:04.073Z,99084.16
2022-10-05T13:08:41.975Z,99082.53
2022-10-05T13:11:12.724Z,99094.63
2022-10-05T13:14:02.458Z,99095.66
2022-10-05T13:16:33.823Z,99088.75
2022-10-05T13:19:09.737Z,99097.47
2022-10-05T13:21:55.238Z,99093.19
2022-10-05T13:24:26.685Z,99088.03
2022-10-05T13:26:56.129Z,99094.94
2022-10-05T13:29:34.810Z,99100.94
2022-10-05T13:32:10.488Z,99094.94
2022-10-05T13:34:40.278Z,99103.53
2022-10-05T13:37:09.681Z,99104.38
2022-10-05T13:39:49.504Z,99101.78
2022-10-05T13:42:19.273Z,99105.22
2022-10-05T13:44:45.867Z,99111.28
2022-10-05T13:47:35.104Z,99119.84
2022-10-05T13:50:20.524Z,99113.81
2022-10-05T13:53:02.459Z,99118.09
2022-10-05T13:55:38.418Z,99113.84
2022-10-05T13:58:34.720Z,99113.84
2022-10-05T14:01:14.881Z,99116.44
2022-10-05T14:04:03.931Z,99121.63
2022-10-05T14:06:31.083Z,99129.38
2022-10-05T14:09:00.314Z,99120.81
2022-10-05T14:11:31.340Z,99126.00
2022-10-05T14:14:04.526Z,99140.66
2022-10-05T14:16:33.461Z,99145.00
2022-10-05T14:19:06.375Z,99136.41
2022-10-05T14:21:42.834Z,99139.84
2022-10-05T14:24:42.412Z,99138.13
2022-10-05T14:27:33.885Z,99147.59
2022-10-05T14:30:09.598Z,99151.03
2022-10-05T14:32:48.061Z,99153.63
2022-10-05T14:35:16.037Z,99156.19
2022-10-05T14:37:44.423Z,99151.88
2022-10-05T14:40:40.186Z,99152.75
2022-10-05T14:43:15.816Z,99149.31
2022-10-05T14:45:58.692Z,99152.72
2022-10-05T14:48:28.060Z,99155.31
2022-10-05T14:50:59.599Z,99157.91
2022-10-05T14:53:38.003Z,99158.75
2022-10-05T14:56:17.746Z,99164.78
2022-10-05T14:59:04.161Z,99152.75
2022-10-05T15:01:39.357Z,99162.22
2022-10-05T15:04:05.964Z,99181.16
2022-10-05T15:06:44.972Z,99169.13
2022-10-05T15:09:24.739Z,99174.28
2022-10-05T15:11:53.302Z,99183.75
2022-10-05T15:14:22.867Z,99174.28
2022-10-05T15:17:02.615Z,99182.88
2022-10-05T15:19:47.304Z,99182.03
2022-10-05T15:22:22.822Z,99186.31
2022-10-05T15:24:59.144Z,99196.66
2022-10-05T15:27:26.246Z,99199.22
2022-10-05T15:29:59.834Z,99202.69
2022-10-05T15:32:29.432Z,99202.69
2022-10-05T15:35:03.999Z,99217.31
2022-10-05T15:37:33.404Z,99212.97
2022-10-05T15:40:01.333Z,99209.53
2022-10-05T15:42:36.483Z,99202.66
2022-10-05T15:45:06.583Z,99210.41
2022-10-05T15:47:56.312Z,99207.81
2022-10-05T15:50:26.321Z,99209.56
2022-10-05T15:52:55.788Z,99215.56
2022-10-05T15:55:22.385Z,99220.72
2022-10-05T15:58:08.493Z,99219.88
2022-10-05T16:00:47.422Z,99220.75
2022-10-05T16:03:32.612Z,99224.19
2022-10-05T16:06:24.592Z,99231.06
2022-10-05T16:09:01.176Z,99226.78
2022-10-05T16:11:33.241Z,99221.59
2022-10-05T16:14:18.685Z,99227.59
2022-10-05T16:17:08.406Z,99239.66
2022-10-05T16:19:46.212Z,99232.78
2022-10-05T16:22:27.770Z,99239.63
2022-10-05T16:25:00.534Z,99231.91
2022-10-05T16:27:29.954Z,99238.78
2022-10-05T16:30:09.548Z,99231.03
2022-10-05T16:32:50.773Z,99228.47
2022-10-05T16:35:30.193Z,99226.75
2022-10-05T16:37:56.934Z,99237.06
2022-10-05T16:40:40.298Z,99241.34
2022-10-05T16:43:25.790Z,99231.03
2022-10-05T16:46:01.948Z,99240.50
2022-10-05T16:48:36.776Z,99225.03
2022-10-05T16:51:12.295Z,99234.50
2022-10-05T16:53:42.365Z,99243.06
2022-10-05T16:56:14.975Z,99249.97
2022-10-05T16:58:47.563Z,99242.22
2022-10-05T17:01:42.280Z,99253.38
2022-10-05T17:04:12.205Z,99259.38
2022-10-05T17:06:48.064Z,99253.34
2022-10-05T17:09:33.432Z,99247.34
2022-10-05T17:12:26.831Z,99257.69
2022-10-05T17:14:53.456Z,99259.38
2022-10-05T17:17:20.727Z,99265.41
2022-10-05T17:19:50.077Z,99267.97
2022-10-05T17:22:31.471Z,99265.41
2022-10-05T17:25:00.851Z,99275.75
2022-10-05T17:27:50.655Z,99271.44
2022-10-05T17:30:20.548Z,99267.16
2022-10-05T17:33:14.316Z,99268.03
2022-10-05T17:36:06.293Z,99267.19
2022-10-05T17:38:35.542Z,99270.63
2022-10-05T17:41:37.088Z,99280.94
2022-10-05T17:44:16.361Z,99281.75
2022-10-05T17:46:48.308Z,99284.31
2022-10-05T17:49:22.927Z,99277.44
2022-10-05T17:52:11.079Z,99279.19
2022-10-05T17:55:05.148Z,99285.19
2022-10-05T17:57:32.110Z,99284.34
2022-10-05T18:00:00.762Z,99292.91
2022-10-05T18:02:36.821Z,99286.88
2022-10-05T18:05:06.582Z,99285.13
2022-10-05T18:07:36.880Z,99292.00
2022-10-05T18:10:12.331Z,99291.13
2022-10-05T18:12:41.593Z,99295.41
2022-10-05T18:15:08.178Z,99295.41
2022-10-05T18:17:35.172Z,99294.56
2022-10-05T18:20:10.593Z,99291.09
2022-10-05T18:22:37.189Z,99297.13
2022-10-05T18:25:07.944Z,99293.72
2022-10-05T18:27:48.563Z,99299.69
2022-10-05T18:30:38.407Z,99303.97
2022-10-05T18:33:25.424Z,99306.53
2022-10-05T18:36:07.365Z,99308.22
2022-10-05T18:38:40.248Z,99314.25
2022-10-05T18:41:12.982Z,99314.25
2022-10-05T18:43:58.401Z,99303.91
2022-10-05T18:46:32.278Z,99311.63
2022-10-05T18:49:07.975Z,99304.69
2022-10-05T18:51:54.765Z,99297.84
2022-10-05T18:54:47.061Z,99294.38
2022-10-05T18:57:34.406Z,99296.16
2022-10-05T19:00:04.036Z,99301.28
2022-10-05T19:02:38.629Z,99301.31
2022-10-05T19:05:23.825Z,99295.31
2022-10-05T19:08:17.476Z,99305.63
2022-10-05T19:10:45.837Z,99303.06
2022-10-05T19:13:18.361Z,99309.91
2022-10-05T19:15:44.983Z,99307.34
2022-10-05T19:18:30.762Z,99315.03
2022-10-05T19:21:17.046Z,99297.91
2022-10-05T19:24:01.868Z,99307.38
2022-10-05T19:26:43.234Z,99303.06
2022-10-05T19:29:12.722Z,99307.38
2022-10-05T19:31:49.328Z,99319.41
2022-10-05T19:34:22.236Z,99315.94
2022-10-05T19:37:08.073Z,99306.53
2022-10-05T19:39:43.253Z,99317.72
2022-10-05T19:42:28.184Z,99318.59
2022-10-05T19:44:57.919Z,99315.16
2022-10-05T19:47:28.323Z,99318.63
2022-10-05T19:49:55.680Z,99318.63
2022-10-05T19:52:24.949Z,99316.91
2022-10-05T19:55:01.986Z,99327.22
2022-10-05T19:57:31.671Z,99322.03
2022-10-05T19:59:58.657Z,99322.91
2022-10-05T20:02:25.730Z,99322.91
2022-10-05T20:04:55.057Z,99327.19
2022-10-05T20:07:22.934Z,99317.75
2022-10-05T20:09:53.938Z,99325.50
2022-10-05T20:12:22.915Z,99318.59
2022-10-05T20:15:23.686Z,99316.91
2022-10-05T20:18:08.820Z,99313.44
2022-10-05T20:20:36.987Z,99318.63
2022-10-05T20:23:23.513Z,99328.94
2022-10-05T20:26:10.480Z,99320.34
2022-10-05T20:28:37.533Z,99323.75
2022-10-05T20:31:06.576Z,99322.06
2022-10-05T20:33:34.467Z,99321.19
2022-10-05T20:36:03.689Z,99329.78
2022-10-05T20:38:31.668Z,99333.22
2022-10-05T20:40:58.535Z,99332.34
2022-10-05T20:43:25.115Z,99333.19
2022-10-05T20:45:52.321Z,99336.66
2022-10-05T20:48:19.574Z,99335.78
2022-10-05T20:50:47.336Z,99340.06
2022-10-05T20:53:14.089Z,99322.03
2022-10-05T20:55:40.754Z,99336.63
2022-10-05T20:58:09.042Z,99332.34
2022-10-05T21:00:54.133Z,99335.78
2022-10-05T21:03:20.740Z,99338.38
2022-10-05T21:05:47.377Z,99343.50
2022-10-05T21:08:14.168Z,99329.72
2022-10-05T21:10:40.822Z,99330.56
2022-10-05T21:13:07.484Z,99330.56
2022-10-05T21:15:34.125Z,99341.75
2022-10-05T21:18:00.730Z,99332.31
2022-10-05T21:20:27.380Z,99334.06
2022-10-05T21:22:54.035Z,99332.34
2022-10-05T21:25:20.673Z,99324.63
2022-10-05T21:27:48.678Z,99330.59
2022-10-05T21:30:15.515Z,99337.47
2022-10-05T21:32:44.574Z,99332.34
2022-10-05T21:35:11.638Z,99335.75
2022-10-05T21:37:38.300Z,99339.22
2022-10-05T21:40:05.124Z,99334.06
2022-10-05T21:42:31.786Z,99334.94
2022-10-05T21:44:58.402Z,99340.97
2022-10-05T21:47:25.539Z,99339.25
2022-10-05T21:49:52.191Z,99342.69
2022-10-05T21:52:18.895Z,99351.28
2022-10-05T21:54:45.821Z,99349.56
2022-10-05T21:57:12.775Z,99363.31
2022-10-05T21:59:40.408Z,99356.44
2022-10-05T22:02:07.280Z,99362.44
2022-10-05T22:04:33.944Z,99366.72
2022-10-05T22:07:01.224Z,99367.59
2022-10-05T22:09:27.924Z,99370.16
2022-10-05T22:11:54.971Z,99366.69
2022-10-05T22:14:21.697Z,99371.81
2022-10-05T22:16:48.433Z,99367.53
2022-10-05T22:19:17.632Z,99369.22
2022-10-05T22:21:44.323Z,99364.97
2022-10-05T22:24:11.731Z,99370.13
2022-10-05T22:26:39.352Z,99378.72
2022-10-05T22:29:06.049Z,99382.13
2022-10-05T22:31:32.815Z,99383.84
2022-10-05T22:33:59.511Z,99376.16
2022-10-05T22:36:26.206Z,99377.00
2022-10-05T22:38:52.773Z,99373.59
2022-10-05T22:41:19.457Z,99373.59
2022-10-05T22:43:50.757Z,99379.63
2022-10-05T22:46:18.304Z,99375.31
2022-10-05T22:48:44.997Z,99380.47
2022-10-05T22:51:11.600Z,99375.34
2022-10-05T22:53:38.241Z,99383.94
2022-10-05T22:56:09.251Z,99378.78
2022-10-05T22:58:36.644Z,99382.22
2022-10-05T23:01:05.165Z,99371.06
2022-10-05T23:03:31.919Z,99368.47
2022-10-05T23:06:03.618Z,99370.22
2022-10-05T23:08:31.215Z,99372.78
2022-10-05T23:11:17.706Z,99371.97
2022-10-05T23:13:44.391Z,99366.81
2022-10-05T23:16:12.600Z,99367.69
2022-10-05T23:18:39.767Z,99371.13
2022-10-05T23:21:09.798Z,99369.41
2022-10-05T23:23:37.416Z,99372.00
2022-10-05T23:26:05.195Z,99374.59
2022-10-05T23:28:32.235Z,99376.28
2022-10-05T23:31:03.848Z,99366.84
2022-10-05T23:33:30.820Z,99385.75
2022-10-05T23:36:01.754Z,99379.75
2022-10-05T23:38:28.840Z,99386.63
2022-10-05T23:40:56.297Z,99384.00
2022-10-05T23:43:22.934Z,99377.13
2022-10-05T23:45:49.629Z,99383.16
2022-10-05T23:48:16.329Z,99385.75
2022-10-05T23:50:45.519Z,99380.59
2022-10-05T23:53:12.552Z,99379.75
2022-10-05T23:55:39.205Z,99382.31
2022-10-05T23:58:05.815Z,99379.78
